WZZ5463 EGGW-EDLW
Flight info
| Callsign | WZZ5463 |
|---|---|
| Flight time | 0h 56m |
| Altitude | 33000 |
| Route | MATCH2C MATCH Q295 BRAIN M197 REDFA L620 TACHA DCT PAM L620 SONEB Z841 DOMEG DOMEG2A |
| Aircraft | A21N/M-SDE2E3FGHIRWXY/LB1 |
Departure
| Time | 2026-04-28 17:06 |
|---|---|
| Airport | London Luton Airport (EGGW) |
Arrival
| Time | 2026-04-28 18:02 |
|---|---|
| Airport | Dortmund Airport (EDLW) |
| Time | Latitude | Longitude | Altitude | Speed | Heading |
|---|---|---|---|---|---|
| 2026-04-28 16:39 | 51.87958 | -0.37324 | 514 ft | 0 kts | 162° |
| 2026-04-28 16:54 | 51.87975 | -0.37334 | 514 ft | 4 kts | 159° |
| 2026-04-28 16:55 | 51.87997 | -0.37355 | 514 ft | 4 kts | 126° |
| 2026-04-28 16:55 | 51.88004 | -0.37391 | 514 ft | 4 kts | 80° |
| 2026-04-28 16:55 | 51.88001 | -0.37411 | 514 ft | 1 kts | 72° |
| 2026-04-28 16:55 | 51.88001 | -0.37413 | 514 ft | 0 kts | 72° |
| 2026-04-28 16:59 | 51.88003 | -0.37404 | 514 ft | 3 kts | 72° |
| 2026-04-28 16:59 | 51.88015 | -0.37343 | 514 ft | 9 kts | 72° |
| 2026-04-28 16:59 | 51.88039 | -0.37227 | 514 ft | 8 kts | 72° |
| 2026-04-28 16:59 | 51.88032 | -0.37142 | 514 ft | 10 kts | 143° |
| 2026-04-28 17:00 | 51.87960 | -0.37102 | 514 ft | 12 kts | 162° |
| 2026-04-28 17:00 | 51.87874 | -0.37057 | 516 ft | 14 kts | 162° |
| 2026-04-28 17:00 | 51.87766 | -0.37002 | 522 ft | 18 kts | 162° |
| 2026-04-28 17:00 | 51.87639 | -0.36958 | 530 ft | 21 kts | 223° |
| 2026-04-28 17:01 | 51.87610 | -0.37083 | 527 ft | 5 kts | 254° |
| 2026-04-28 17:01 | 51.87598 | -0.37152 | 527 ft | 8 kts | 255° |
| 2026-04-28 17:01 | 51.87582 | -0.37250 | 527 ft | 10 kts | 255° |
| 2026-04-28 17:01 | 51.87582 | -0.37375 | 527 ft | 12 kts | 284° |
| 2026-04-28 17:02 | 51.87529 | -0.37481 | 527 ft | 14 kts | 210° |
| 2026-04-28 17:02 | 51.87497 | -0.37573 | 528 ft | 15 kts | 254° |
| 2026-04-28 17:02 | 51.87455 | -0.37815 | 528 ft | 18 kts | 254° |
| 2026-04-28 17:02 | 51.87430 | -0.37960 | 529 ft | 3 kts | 252° |
| 2026-04-28 17:03 | 51.87369 | -0.38065 | 528 ft | 9 kts | 209° |
| 2026-04-28 17:03 | 51.87305 | -0.38104 | 528 ft | 11 kts | 180° |
| 2026-04-28 17:03 | 51.87236 | -0.38171 | 529 ft | 14 kts | 243° |
| 2026-04-28 17:04 | 51.87234 | -0.38274 | 527 ft | 3 kts | 276° |
| 2026-04-28 17:04 | 51.87226 | -0.38311 | 526 ft | 4 kts | 207° |
| 2026-04-28 17:05 | 51.87230 | -0.38176 | 529 ft | 12 kts | 73° |
| 2026-04-28 17:05 | 51.87321 | -0.37669 | 527 ft | 87 kts | 74° |
| 2026-04-28 17:05 | 51.87548 | -0.36417 | 750 ft | 124 kts | 69° |
| 2026-04-28 17:06 | 51.88008 | -0.33666 | 1871 ft | 146 kts | 70° |
| 2026-04-28 17:06 | 51.88301 | -0.31951 | 2294 ft | 169 kts | 70° |
| 2026-04-28 17:06 | 51.89004 | -0.27900 | 3437 ft | 206 kts | 71° |
| 2026-04-28 17:07 | 51.89408 | -0.25551 | 4025 ft | 226 kts | 73° |
| 2026-04-28 17:07 | 51.89747 | -0.23008 | 4879 ft | 235 kts | 85° |
| 2026-04-28 17:07 | 51.89545 | -0.20361 | 5850 ft | 242 kts | 105° |
| 2026-04-28 17:07 | 51.88697 | -0.17983 | 6835 ft | 250 kts | 127° |
| 2026-04-28 17:08 | 51.87277 | -0.16283 | 7730 ft | 262 kts | 150° |
| 2026-04-28 17:08 | 51.85453 | -0.15657 | 8625 ft | 278 kts | 175° |
| 2026-04-28 17:08 | 51.83504 | -0.16069 | 9535 ft | 284 kts | 180° |
| 2026-04-28 17:08 | 51.81623 | -0.15701 | 10483 ft | 274 kts | 154° |
| 2026-04-28 17:09 | 51.79802 | -0.14407 | 10918 ft | 293 kts | 149° |
| 2026-04-28 17:09 | 51.77981 | -0.12789 | 11205 ft | 310 kts | 138° |
| 2026-04-28 17:09 | 51.76504 | -0.10158 | 11474 ft | 325 kts | 120° |
| 2026-04-28 17:09 | 51.75609 | -0.06722 | 11727 ft | 342 kts | 102° |
| 2026-04-28 17:10 | 51.75499 | -0.02832 | 12147 ft | 354 kts | 84° |
| 2026-04-28 17:10 | 51.75853 | 0.01137 | 12697 ft | 359 kts | 82° |
| 2026-04-28 17:10 | 51.76239 | 0.05140 | 13389 ft | 363 kts | 82° |
| 2026-04-28 17:10 | 51.76606 | 0.09213 | 14050 ft | 367 kts | 83° |
| 2026-04-28 17:11 | 51.76954 | 0.13310 | 14645 ft | 370 kts | 83° |
| 2026-04-28 17:11 | 51.77297 | 0.17440 | 15263 ft | 372 kts | 83° |
| 2026-04-28 17:11 | 51.77633 | 0.21534 | 15908 ft | 373 kts | 83° |
| 2026-04-28 17:11 | 51.77974 | 0.25710 | 16597 ft | 376 kts | 83° |
| 2026-04-28 17:12 | 51.78313 | 0.29903 | 17285 ft | 378 kts | 83° |
| 2026-04-28 17:12 | 51.78653 | 0.34132 | 17979 ft | 381 kts | 83° |
| 2026-04-28 17:12 | 51.78993 | 0.38385 | 18643 ft | 383 kts | 83° |
| 2026-04-28 17:12 | 51.79334 | 0.42658 | 19233 ft | 385 kts | 83° |
| 2026-04-28 17:13 | 51.79677 | 0.46972 | 19822 ft | 387 kts | 83° |
| 2026-04-28 17:13 | 51.80018 | 0.51286 | 20336 ft | 390 kts | 83° |
| 2026-04-28 17:13 | 51.80361 | 0.55655 | 20833 ft | 393 kts | 83° |
| 2026-04-28 17:13 | 51.80705 | 0.60048 | 21350 ft | 395 kts | 83° |
| 2026-04-28 17:14 | 51.81068 | 0.64471 | 21816 ft | 398 kts | 81° |
| 2026-04-28 17:14 | 51.81660 | 0.68849 | 22329 ft | 401 kts | 77° |
| 2026-04-28 17:14 | 51.82335 | 0.73232 | 22856 ft | 403 kts | 76° |
| 2026-04-28 17:14 | 51.83019 | 0.77639 | 23382 ft | 405 kts | 76° |
| 2026-04-28 17:15 | 51.83723 | 0.82046 | 23904 ft | 407 kts | 75° |
| 2026-04-28 17:15 | 51.84523 | 0.86458 | 24347 ft | 409 kts | 74° |
| 2026-04-28 17:15 | 51.85329 | 0.90873 | 24789 ft | 411 kts | 74° |
| 2026-04-28 17:15 | 51.86142 | 0.95324 | 25206 ft | 413 kts | 74° |
| 2026-04-28 17:16 | 51.86956 | 0.99794 | 25581 ft | 416 kts | 74° |
| 2026-04-28 17:16 | 51.87776 | 1.04309 | 25921 ft | 419 kts | 74° |
| 2026-04-28 17:16 | 51.88594 | 1.08831 | 26435 ft | 418 kts | 74° |
| 2026-04-28 17:16 | 51.89403 | 1.13338 | 26989 ft | 416 kts | 75° |
| 2026-04-28 17:17 | 51.90207 | 1.17831 | 27560 ft | 414 kts | 75° |
| 2026-04-28 17:17 | 51.91007 | 1.22299 | 28121 ft | 412 kts | 74° |
| 2026-04-28 17:17 | 51.91807 | 1.26750 | 28670 ft | 411 kts | 74° |
| 2026-04-28 17:17 | 51.92592 | 1.31129 | 29198 ft | 409 kts | 74° |
| 2026-04-28 17:18 | 51.93381 | 1.35548 | 29725 ft | 408 kts | 74° |
| 2026-04-28 17:18 | 51.94166 | 1.39957 | 30232 ft | 406 kts | 74° |
| 2026-04-28 17:18 | 51.94946 | 1.44361 | 30656 ft | 405 kts | 74° |
| 2026-04-28 17:18 | 51.95723 | 1.48757 | 30983 ft | 406 kts | 74° |
| 2026-04-28 17:19 | 51.96500 | 1.53166 | 31246 ft | 408 kts | 74° |
| 2026-04-28 17:19 | 51.97279 | 1.57591 | 31577 ft | 408 kts | 74° |
| 2026-04-28 17:19 | 51.98059 | 1.62033 | 31920 ft | 408 kts | 74° |
| 2026-04-28 17:19 | 51.98831 | 1.66453 | 32270 ft | 408 kts | 74° |
| 2026-04-28 17:20 | 51.99557 | 1.70906 | 32605 ft | 407 kts | 76° |
| 2026-04-28 17:20 | 52.00017 | 1.73848 | 32816 ft | 407 kts | 76° |
| 2026-04-28 17:20 | 52.00949 | 1.79805 | 33232 ft | 407 kts | 76° |
| 2026-04-28 17:20 | 52.01633 | 1.84200 | 33331 ft | 407 kts | 76° |
| 2026-04-28 17:21 | 52.03011 | 1.93112 | 33303 ft | 407 kts | 76° |
| 2026-04-28 17:22 | 52.05050 | 2.06368 | 33305 ft | 402 kts | 76° |
| 2026-04-28 17:22 | 52.06397 | 2.15198 | 33310 ft | 403 kts | 76° |
| 2026-04-28 17:23 | 52.08408 | 2.28458 | 33307 ft | 402 kts | 76° |
| 2026-04-28 17:23 | 52.09739 | 2.37297 | 33304 ft | 402 kts | 76° |
| 2026-04-28 17:24 | 52.11056 | 2.46088 | 33302 ft | 403 kts | 76° |
| 2026-04-28 17:24 | 52.12618 | 2.54880 | 33308 ft | 406 kts | 73° |
| 2026-04-28 17:25 | 52.15126 | 2.68054 | 33300 ft | 406 kts | 73° |
| 2026-04-28 17:26 | 52.16790 | 2.76850 | 33302 ft | 406 kts | 73° |
| 2026-04-28 17:26 | 52.18442 | 2.85631 | 33307 ft | 406 kts | 73° |
| 2026-04-28 17:27 | 52.20098 | 2.94435 | 33303 ft | 406 kts | 73° |
| 2026-04-28 17:27 | 52.21755 | 3.03298 | 33296 ft | 410 kts | 73° |
| 2026-04-28 17:28 | 52.23411 | 3.12208 | 33296 ft | 411 kts | 73° |
| 2026-04-28 17:28 | 52.25048 | 3.21084 | 33289 ft | 400 kts | 73° |
| 2026-04-28 17:28 | 52.25647 | 3.25431 | 33290 ft | 399 kts | 81° |
| 2026-04-28 17:29 | 52.26148 | 3.34527 | 33294 ft | 400 kts | 84° |
| 2026-04-28 17:30 | 52.26788 | 3.48120 | 33290 ft | 401 kts | 84° |
| 2026-04-28 17:30 | 52.27440 | 3.61774 | 33289 ft | 404 kts | 84° |
| 2026-04-28 17:31 | 52.28081 | 3.75497 | 33287 ft | 404 kts | 84° |
| 2026-04-28 17:32 | 52.28704 | 3.89215 | 33294 ft | 404 kts | 84° |
| 2026-04-28 17:32 | 52.29108 | 3.98360 | 33286 ft | 405 kts | 84° |
| 2026-04-28 17:33 | 52.29508 | 4.07557 | 33290 ft | 406 kts | 84° |
| 2026-04-28 17:33 | 52.29773 | 4.13678 | 33291 ft | 407 kts | 84° |
| 2026-04-28 17:34 | 52.30291 | 4.25938 | 33286 ft | 407 kts | 84° |
| 2026-04-28 17:34 | 52.30669 | 4.35160 | 33296 ft | 406 kts | 84° |
| 2026-04-28 17:35 | 52.30975 | 4.42829 | 33287 ft | 407 kts | 84° |
| 2026-04-28 17:35 | 52.31345 | 4.52046 | 33286 ft | 406 kts | 84° |
| 2026-04-28 17:36 | 52.31705 | 4.61260 | 33284 ft | 406 kts | 84° |
| 2026-04-28 17:36 | 52.32057 | 4.70468 | 33268 ft | 406 kts | 84° |
| 2026-04-28 17:37 | 52.32404 | 4.79694 | 33272 ft | 406 kts | 84° |
| 2026-04-28 17:37 | 52.32741 | 4.88900 | 33275 ft | 406 kts | 84° |
| 2026-04-28 17:38 | 52.33074 | 4.98127 | 33287 ft | 411 kts | 84° |
| 2026-04-28 17:38 | 52.33239 | 5.07508 | 33286 ft | 416 kts | 92° |
| 2026-04-28 17:39 | 52.31769 | 5.16715 | 33280 ft | 423 kts | 107° |
| 2026-04-28 17:40 | 52.28517 | 5.30066 | 33299 ft | 423 kts | 108° |
| 2026-04-28 17:40 | 52.26359 | 5.39043 | 33284 ft | 423 kts | 107° |
| 2026-04-28 17:41 | 52.24210 | 5.47995 | 33282 ft | 427 kts | 108° |
| 2026-04-28 17:41 | 52.22028 | 5.57036 | 33291 ft | 429 kts | 108° |
| 2026-04-28 17:42 | 52.19842 | 5.66045 | 33268 ft | 429 kts | 108° |
| 2026-04-28 17:42 | 52.17644 | 5.75072 | 33267 ft | 429 kts | 108° |
| 2026-04-28 17:43 | 52.15436 | 5.84109 | 33267 ft | 429 kts | 108° |
| 2026-04-28 17:43 | 52.13220 | 5.93131 | 33263 ft | 431 kts | 109° |
| 2026-04-28 17:44 | 52.10959 | 6.02295 | 33274 ft | 438 kts | 109° |
| 2026-04-28 17:44 | 52.09189 | 6.11707 | 33277 ft | 436 kts | 98° |
| 2026-04-28 17:45 | 52.08196 | 6.21386 | 33259 ft | 434 kts | 97° |
| 2026-04-28 17:45 | 52.07706 | 6.26206 | 32797 ft | 430 kts | 97° |
| 2026-04-28 17:45 | 52.07207 | 6.31047 | 31636 ft | 437 kts | 97° |
| 2026-04-28 17:45 | 52.06696 | 6.35932 | 30744 ft | 439 kts | 97° |
| 2026-04-28 17:46 | 52.06187 | 6.40758 | 29825 ft | 440 kts | 98° |
| 2026-04-28 17:46 | 52.05665 | 6.45672 | 28823 ft | 441 kts | 97° |
| 2026-04-28 17:46 | 52.05141 | 6.50594 | 27877 ft | 444 kts | 98° |
| 2026-04-28 17:46 | 52.04608 | 6.55572 | 26392 ft | 453 kts | 98° |
| 2026-04-28 17:47 | 52.04066 | 6.60625 | 25247 ft | 454 kts | 98° |
| 2026-04-28 17:47 | 52.03522 | 6.65659 | 24335 ft | 452 kts | 98° |
| 2026-04-28 17:47 | 52.02979 | 6.70673 | 23468 ft | 449 kts | 98° |
| 2026-04-28 17:47 | 52.02572 | 6.73955 | 22880 ft | 447 kts | 102° |
| 2026-04-28 17:48 | 52.01001 | 6.80142 | 21800 ft | 442 kts | 117° |
| 2026-04-28 17:48 | 51.99411 | 6.84405 | 20991 ft | 439 kts | 120° |
| 2026-04-28 17:48 | 51.97801 | 6.88586 | 20193 ft | 436 kts | 120° |
| 2026-04-28 17:48 | 51.96208 | 6.92743 | 19433 ft | 432 kts | 120° |
| 2026-04-28 17:49 | 51.94634 | 6.96876 | 18698 ft | 429 kts | 120° |
| 2026-04-28 17:49 | 51.93094 | 7.00933 | 17901 ft | 428 kts | 120° |
| 2026-04-28 17:49 | 51.91536 | 7.05036 | 17166 ft | 424 kts | 120° |
| 2026-04-28 17:49 | 51.89980 | 7.09065 | 16548 ft | 416 kts | 122° |
| 2026-04-28 17:50 | 51.88070 | 7.12423 | 16058 ft | 396 kts | 140° |
| 2026-04-28 17:50 | 51.85804 | 7.14703 | 15685 ft | 374 kts | 153° |
| 2026-04-28 17:50 | 51.83478 | 7.16334 | 15381 ft | 353 kts | 155° |
| 2026-04-28 17:50 | 51.81262 | 7.17813 | 15049 ft | 335 kts | 156° |
| 2026-04-28 17:51 | 51.79162 | 7.19235 | 14668 ft | 321 kts | 155° |
| 2026-04-28 17:51 | 51.77145 | 7.20624 | 14160 ft | 312 kts | 155° |
| 2026-04-28 17:51 | 51.75167 | 7.21998 | 13502 ft | 307 kts | 155° |
| 2026-04-28 17:51 | 51.73210 | 7.23364 | 12856 ft | 303 kts | 155° |
| 2026-04-28 17:52 | 51.71274 | 7.24641 | 12141 ft | 301 kts | 162° |
| 2026-04-28 17:52 | 51.69168 | 7.25013 | 11250 ft | 310 kts | 179° |
| 2026-04-28 17:52 | 51.65008 | 7.24539 | 10272 ft | 291 kts | 182° |
| 2026-04-28 17:53 | 51.62994 | 7.24215 | 9624 ft | 288 kts | 184° |
| 2026-04-28 17:53 | 51.61037 | 7.23874 | 8982 ft | 285 kts | 183° |
| 2026-04-28 17:53 | 51.59072 | 7.23502 | 8319 ft | 283 kts | 183° |
| 2026-04-28 17:53 | 51.57129 | 7.23162 | 7695 ft | 278 kts | 178° |
| 2026-04-28 17:54 | 51.55216 | 7.23193 | 7081 ft | 273 kts | 174° |
| 2026-04-28 17:54 | 51.53303 | 7.23340 | 6449 ft | 270 kts | 172° |
| 2026-04-28 17:54 | 51.51457 | 7.23389 | 5814 ft | 270 kts | 182° |
| 2026-04-28 17:54 | 51.49646 | 7.22526 | 5164 ft | 274 kts | 200° |
| 2026-04-28 17:55 | 51.47964 | 7.21099 | 4536 ft | 274 kts | 208° |
| 2026-04-28 17:55 | 51.46324 | 7.19581 | 4105 ft | 268 kts | 193° |
| 2026-04-28 17:55 | 51.44553 | 7.19435 | 3809 ft | 247 kts | 159° |
| 2026-04-28 17:55 | 51.43147 | 7.20760 | 3417 ft | 230 kts | 125° |
| 2026-04-28 17:56 | 51.42480 | 7.22983 | 3011 ft | 219 kts | 100° |
| 2026-04-28 17:56 | 51.42175 | 7.25348 | 2755 ft | 213 kts | 98° |
| 2026-04-28 17:56 | 51.41942 | 7.27639 | 2515 ft | 205 kts | 93° |
| 2026-04-28 17:56 | 51.41824 | 7.29911 | 2446 ft | 200 kts | 88° |
| 2026-04-28 17:57 | 51.41955 | 7.32054 | 2432 ft | 193 kts | 76° |
| 2026-04-28 17:57 | 51.42349 | 7.34070 | 2440 ft | 182 kts | 68° |
| 2026-04-28 17:57 | 51.42845 | 7.35779 | 2434 ft | 161 kts | 63° |
| 2026-04-28 17:57 | 51.43408 | 7.37356 | 2479 ft | 164 kts | 61° |
| 2026-04-28 17:58 | 51.43976 | 7.38961 | 2504 ft | 163 kts | 62° |
| 2026-04-28 17:58 | 51.44529 | 7.40528 | 2500 ft | 162 kts | 61° |
| 2026-04-28 17:58 | 51.45091 | 7.42117 | 2479 ft | 163 kts | 61° |
| 2026-04-28 17:58 | 51.45640 | 7.43668 | 2465 ft | 162 kts | 62° |
| 2026-04-28 17:59 | 51.46200 | 7.45255 | 2463 ft | 161 kts | 62° |
| 2026-04-28 17:59 | 51.46712 | 7.46705 | 2406 ft | 139 kts | 63° |
| 2026-04-28 17:59 | 51.47156 | 7.47965 | 2214 ft | 119 kts | 61° |
| 2026-04-28 17:59 | 51.47551 | 7.49086 | 2054 ft | 115 kts | 62° |
| 2026-04-28 18:00 | 51.47946 | 7.50207 | 1917 ft | 116 kts | 61° |
| 2026-04-28 18:00 | 51.48346 | 7.51342 | 1756 ft | 118 kts | 62° |
| 2026-04-28 18:00 | 51.48754 | 7.52499 | 1608 ft | 120 kts | 60° |
| 2026-04-28 18:00 | 51.49162 | 7.53657 | 1445 ft | 119 kts | 61° |
| 2026-04-28 18:01 | 51.49571 | 7.54821 | 1281 ft | 118 kts | 60° |
| 2026-04-28 18:01 | 51.49977 | 7.55974 | 1123 ft | 119 kts | 59° |
| 2026-04-28 18:01 | 51.50384 | 7.57129 | 967 ft | 118 kts | 60° |
| 2026-04-28 18:01 | 51.50792 | 7.58278 | 726 ft | 121 kts | 61° |
| 2026-04-28 18:02 | 51.51202 | 7.59430 | 595 ft | 119 kts | 59° |
| 2026-04-28 18:02 | 51.51613 | 7.60593 | 448 ft | 122 kts | 59° |
| 2026-04-28 18:02 | 51.51992 | 7.61679 | 419 ft | 93 kts | 59° |
| 2026-04-28 18:02 | 51.52164 | 7.62168 | 419 ft | 20 kts | 62° |
| 2026-04-28 18:03 | 51.52129 | 7.62370 | 420 ft | 24 kts | 161° |
| 2026-04-28 18:03 | 51.52110 | 7.62381 | 421 ft | 2 kts | 162° |
| 2026-04-28 18:03 | 51.52085 | 7.62391 | 418 ft | 6 kts | 173° |
| 2026-04-28 18:03 | 51.52040 | 7.62356 | 414 ft | 9 kts | 236° |
| 2026-04-28 18:04 | 51.52002 | 7.62242 | 417 ft | 14 kts | 242° |
| 2026-04-28 18:04 | 51.51947 | 7.62084 | 419 ft | 18 kts | 240° |
| 2026-04-28 18:04 | 51.51882 | 7.61902 | 419 ft | 20 kts | 240° |
| 2026-04-28 18:04 | 51.51809 | 7.61696 | 419 ft | 23 kts | 240° |
| 2026-04-28 18:05 | 51.51744 | 7.61514 | 431 ft | 13 kts | 240° |
| 2026-04-28 18:05 | 51.51712 | 7.61424 | 437 ft | 15 kts | 240° |
| 2026-04-28 18:05 | 51.51654 | 7.61259 | 433 ft | 10 kts | 240° |
| 2026-04-28 18:05 | 51.51614 | 7.61147 | 434 ft | 13 kts | 240° |
| 2026-04-28 18:06 | 51.51541 | 7.61059 | 439 ft | 16 kts | 175° |
| 2026-04-28 18:06 | 51.51474 | 7.61022 | 436 ft | 9 kts | 165° |
| 2026-04-28 18:06 | 51.51450 | 7.61044 | 426 ft | 0 kts | 145° |
| 2026-04-28 18:06 | 51.51447 | 7.61046 | 426 ft | 1 kts | 146° |
| 2026-04-28 18:07 | 51.51439 | 7.61055 | 433 ft | 0 kts | 146° |
| 2026-04-28 18:07 | 51.51438 | 7.61056 | 433 ft | 1 kts | 144° |
| 2026-04-28 18:07 | 51.51438 | 7.61057 | 432 ft | 0 kts | 145° |